createdAt,value
2023-03-01T00:01:42.234Z,-0.12
2023-03-01T00:04:46.160Z,-0.13
2023-03-01T00:07:54.125Z,-0.06
2023-03-01T00:11:20.836Z,-0.06
2023-03-01T00:14:24.749Z,-0.02
2023-03-01T00:17:29.665Z,0.00
2023-03-01T00:20:34.062Z,-0.04
2023-03-01T00:23:39.219Z,-0.08
2023-03-01T00:26:43.620Z,-0.06
2023-03-01T00:29:47.498Z,-0.06
2023-03-01T00:32:54.478Z,-0.03
2023-03-01T00:35:59.713Z,-0.13
2023-03-01T00:39:06.275Z,-0.11
2023-03-01T00:42:10.322Z,-0.12
2023-03-01T00:45:14.713Z,-0.12
2023-03-01T00:48:18.761Z,-0.16
2023-03-01T00:51:27.266Z,-0.10
2023-03-01T00:54:31.424Z,-0.17
2023-03-01T00:57:35.597Z,-0.18
2023-03-01T01:00:39.560Z,-0.25
2023-03-01T01:04:05.279Z,-0.31
2023-03-01T01:07:09.473Z,-0.33
2023-03-01T01:10:17.814Z,-0.45
2023-03-01T01:13:22.550Z,-0.46
2023-03-01T01:16:29.515Z,-0.49
2023-03-01T01:19:34.392Z,-0.50
2023-03-01T01:22:38.136Z,-0.49
2023-03-01T01:25:42.035Z,-0.50
2023-03-01T01:28:46.459Z,-0.55
2023-03-01T01:31:50.709Z,-0.60
2023-03-01T01:34:54.409Z,-0.60
2023-03-01T01:37:58.410Z,-0.64
2023-03-01T01:41:02.772Z,-0.62
2023-03-01T01:44:25.463Z,-0.63
2023-03-01T01:47:29.730Z,-0.66
2023-03-01T01:50:39.786Z,-0.66
2023-03-01T01:53:45.707Z,-0.63
2023-03-01T01:56:55.940Z,-0.61
2023-03-01T02:00:03.769Z,-0.64
2023-03-01T02:03:12.597Z,-0.72
2023-03-01T02:06:23.159Z,-0.71
2023-03-01T02:09:27.972Z,-0.74
2023-03-01T02:12:32.422Z,-0.75
2023-03-01T02:15:39.093Z,-0.80
2023-03-01T02:18:44.071Z,-0.90
2023-03-01T02:22:03.896Z,-0.93
2023-03-01T02:25:19.908Z,-0.97
2023-03-01T02:28:26.348Z,-0.97
2023-03-01T02:31:42.548Z,-0.97
2023-03-01T02:34:46.403Z,-0.90
2023-03-01T02:37:51.237Z,-0.86
2023-03-01T02:40:57.759Z,-0.84
2023-03-01T02:44:02.942Z,-0.90
2023-03-01T02:47:07.179Z,-0.94
2023-03-01T02:50:26.163Z,-0.94
2023-03-01T02:53:57.727Z,-0.97
2023-03-01T02:57:04.910Z,-0.98
2023-03-01T03:00:20.145Z,-0.98
2023-03-01T03:03:24.139Z,-0.99
2023-03-01T03:06:28.757Z,-1.12
2023-03-01T03:09:33.602Z,-1.12
2023-03-01T03:12:38.719Z,-1.15
2023-03-01T03:15:44.310Z,-1.14
2023-03-01T03:18:50.111Z,-1.11
2023-03-01T03:21:53.722Z,-1.17
2023-03-01T03:24:58.117Z,-1.21
2023-03-01T03:28:01.798Z,-1.21
2023-03-01T03:31:08.028Z,-1.24
2023-03-01T03:34:18.843Z,-1.29
2023-03-01T03:37:41.560Z,-1.33
2023-03-01T03:40:48.690Z,-1.34
2023-03-01T03:43:52.965Z,-1.35
2023-03-01T03:46:57.184Z,-1.38
2023-03-01T03:50:00.902Z,-1.43
2023-03-01T03:53:07.847Z,-1.45
2023-03-01T03:56:12.954Z,-1.45
2023-03-01T03:59:17.355Z,-1.48
2023-03-01T04:02:25.386Z,-1.51
2023-03-01T04:05:32.875Z,-1.52
2023-03-01T04:08:37.226Z,-1.57
2023-03-01T04:11:40.979Z,-1.59
2023-03-01T04:14:45.293Z,-1.55
2023-03-01T04:17:50.004Z,-1.56
2023-03-01T04:20:56.251Z,-1.63
2023-03-01T04:24:00.369Z,-1.62
2023-03-01T04:27:04.727Z,-1.70
2023-03-01T04:30:09.950Z,-1.66
2023-03-01T04:33:14.377Z,-1.73
2023-03-01T04:36:20.429Z,-1.72
2023-03-01T04:39:24.950Z,-1.74
2023-03-01T04:42:29.068Z,-1.74
2023-03-01T04:45:35.333Z,-1.72
2023-03-01T04:48:40.630Z,-1.76
2023-03-01T04:51:44.906Z,-1.75
2023-03-01T04:54:48.988Z,-1.71
2023-03-01T04:57:53.995Z,-1.79
2023-03-01T05:00:58.524Z,-1.84
2023-03-01T05:04:04.206Z,-1.84
2023-03-01T05:07:08.409Z,-1.88
2023-03-01T05:10:12.250Z,-1.90
2023-03-01T05:13:21.979Z,-1.97
2023-03-01T05:16:25.826Z,-1.91
2023-03-01T05:19:31.880Z,-1.91
2023-03-01T05:22:36.543Z,-1.91
2023-03-01T05:25:41.185Z,-1.91
2023-03-01T05:28:45.551Z,-1.92
2023-03-01T05:31:49.687Z,-1.93
2023-03-01T05:34:56.096Z,-1.92
2023-03-01T05:38:00.355Z,-1.95
2023-03-01T05:41:04.536Z,-1.93
2023-03-01T05:44:08.629Z,-1.93
2023-03-01T05:47:12.554Z,-1.91
2023-03-01T05:50:26.440Z,-1.94
2023-03-01T05:53:30.615Z,-1.98
2023-03-01T05:56:35.441Z,-1.99
2023-03-01T05:59:39.746Z,-2.00
2023-03-01T06:02:43.782Z,-1.99
2023-03-01T06:05:47.870Z,-1.93
2023-03-01T06:08:53.257Z,-1.93
2023-03-01T06:11:57.179Z,-1.87
2023-03-01T06:15:01.790Z,-1.93
2023-03-01T06:18:05.784Z,-1.86
2023-03-01T06:21:10.107Z,-1.83
2023-03-01T06:24:14.268Z,-1.79
2023-03-01T06:27:18.049Z,-1.82
2023-03-01T06:30:24.712Z,-1.81
2023-03-01T06:33:28.956Z,-1.73
2023-03-01T06:36:33.189Z,-1.70
2023-03-01T06:39:37.510Z,-1.67
2023-03-01T06:42:44.390Z,-1.67
2023-03-01T06:45:48.584Z,-1.64
2023-03-01T06:48:53.447Z,-1.61
2023-03-01T06:51:58.341Z,-1.51
2023-03-01T06:55:02.993Z,-1.53
2023-03-01T06:58:07.071Z,-1.46
2023-03-01T07:01:11.228Z,-1.44
2023-03-01T07:04:15.400Z,-1.38
2023-03-01T07:07:19.962Z,-1.31
2023-03-01T07:10:24.605Z,-1.23
2023-03-01T07:13:29.156Z,-1.14
2023-03-01T07:16:33.350Z,-1.07
2023-03-01T07:19:37.701Z,-1.01
2023-03-01T07:22:43.225Z,-1.00
2023-03-01T07:25:53.694Z,-0.88
2023-03-01T07:29:00.738Z,-0.78
2023-03-01T07:32:06.176Z,-0.71
2023-03-01T07:35:10.330Z,-0.64
2023-03-01T07:38:17.405Z,-0.58
2023-03-01T07:41:21.777Z,-0.51
2023-03-01T07:44:25.585Z,-0.41
2023-03-01T07:47:29.830Z,-0.31
2023-03-01T07:50:34.297Z,-0.20
2023-03-01T07:53:38.526Z,-0.09
2023-03-01T07:56:42.660Z,0.00
2023-03-01T07:59:46.727Z,0.12
2023-03-01T08:02:50.839Z,0.26
2023-03-01T08:05:54.876Z,0.36
2023-03-01T08:08:59.470Z,0.48
2023-03-01T08:12:05.499Z,0.74
2023-03-01T08:15:09.961Z,1.38
2023-03-01T08:18:13.711Z,2.15
2023-03-01T08:21:18.830Z,2.71
2023-03-01T08:24:23.827Z,2.93
2023-03-01T08:27:27.675Z,3.26
2023-03-01T08:30:31.798Z,3.23
2023-03-01T08:33:36.042Z,3.19
2023-03-01T08:36:42.589Z,2.95
2023-03-01T08:39:47.665Z,2.88
2023-03-01T08:42:51.853Z,2.94
2023-03-01T08:45:56.107Z,3.20
2023-03-01T08:49:00.831Z,3.27
2023-03-01T08:52:05.006Z,3.43
2023-03-01T08:55:09.880Z,3.53
2023-03-01T08:58:14.081Z,3.45
2023-03-01T09:01:20.034Z,3.60
2023-03-01T09:04:24.148Z,3.37
2023-03-01T09:07:31.160Z,3.37
2023-03-01T09:10:38.795Z,3.31
2023-03-01T09:13:44.328Z,3.64
2023-03-01T09:16:48.503Z,3.65
2023-03-01T09:19:52.732Z,3.61
2023-03-01T09:22:56.953Z,3.57
2023-03-01T09:26:01.276Z,3.62
2023-03-01T09:29:05.607Z,3.82
2023-03-01T09:32:09.852Z,3.80
2023-03-01T09:35:14.477Z,3.80
2023-03-01T09:38:18.800Z,3.59
2023-03-01T09:41:22.930Z,3.43
2023-03-01T09:44:48.866Z,3.61
2023-03-01T09:47:53.950Z,3.96
2023-03-01T09:50:58.435Z,4.22
2023-03-01T09:54:09.301Z,4.22
2023-03-01T09:57:31.681Z,4.18
2023-03-01T10:00:43.163Z,4.04
2023-03-01T10:04:29.400Z,3.90
2023-03-01T10:08:03.171Z,3.74
2023-03-01T10:11:24.919Z,3.75
2023-03-01T10:14:44.927Z,3.67
2023-03-01T10:18:08.404Z,3.58
2023-03-01T10:21:18.914Z,3.64
2023-03-01T10:24:23.517Z,3.64
2023-03-01T10:27:54.859Z,3.73
2023-03-01T10:31:00.331Z,3.65
2023-03-01T10:34:13.801Z,3.77
2023-03-01T10:37:21.811Z,3.85
2023-03-01T10:40:25.972Z,3.86
2023-03-01T10:43:45.923Z,4.10
2023-03-01T10:47:01.021Z,4.14
2023-03-01T10:50:18.942Z,4.13
2023-03-01T10:53:36.344Z,4.18
2023-03-01T10:56:55.452Z,4.28
2023-03-01T11:00:18.731Z,4.33
2023-03-01T11:03:31.834Z,4.42
2023-03-01T11:06:41.341Z,4.49
2023-03-01T11:09:45.248Z,4.62
2023-03-01T11:12:49.528Z,4.70
2023-03-01T11:16:07.784Z,4.65
2023-03-01T11:19:11.763Z,4.86
2023-03-01T11:22:22.111Z,4.92
2023-03-01T11:25:30.242Z,4.97
2023-03-01T11:28:38.668Z,4.98
2023-03-01T11:31:56.754Z,4.93
2023-03-01T11:35:11.095Z,4.81
2023-03-01T11:38:24.970Z,4.94
2023-03-01T11:41:33.639Z,5.04
2023-03-01T11:44:39.149Z,4.81
2023-03-01T11:48:23.601Z,4.70
2023-03-01T11:51:40.281Z,4.82
2023-03-01T11:55:03.959Z,4.99
2023-03-01T11:58:38.948Z,4.96
2023-03-01T12:02:19.177Z,4.91
2023-03-01T12:05:51.447Z,5.05
2023-03-01T12:09:25.726Z,5.04
2023-03-01T12:12:49.765Z,4.98
2023-03-01T12:16:39.209Z,5.13
2023-03-01T12:19:54.574Z,5.14
2023-03-01T12:23:25.412Z,5.02
2023-03-01T12:26:40.271Z,5.27
2023-03-01T12:29:53.342Z,5.33
2023-03-01T12:33:09.819Z,5.23
2023-03-01T12:36:46.336Z,5.27
2023-03-01T12:40:13.775Z,5.38
2023-03-01T12:44:05.026Z,5.53
2023-03-01T12:47:21.208Z,5.53
2023-03-01T12:50:30.039Z,5.53
2023-03-01T12:53:41.912Z,5.51
2023-03-01T12:56:53.048Z,5.37
2023-03-01T13:00:33.673Z,5.44
2023-03-01T13:04:12.085Z,5.75
2023-03-01T13:07:30.450Z,5.91
2023-03-01T13:10:50.749Z,5.70
2023-03-01T13:14:26.596Z,5.75
2023-03-01T13:17:33.484Z,5.80
2023-03-01T13:20:43.697Z,5.79
2023-03-01T13:23:49.193Z,5.80
2023-03-01T13:27:08.224Z,5.69
2023-03-01T13:30:40.152Z,5.81
2023-03-01T13:33:57.813Z,6.06
2023-03-01T13:37:35.074Z,6.12
2023-03-01T13:40:59.214Z,6.15
2023-03-01T13:44:12.483Z,6.10
2023-03-01T13:47:18.956Z,6.07
2023-03-01T13:50:30.472Z,6.19
2023-03-01T13:53:40.229Z,6.13
2023-03-01T13:56:45.215Z,6.04
2023-03-01T13:59:49.223Z,6.19
2023-03-01T14:03:06.194Z,6.12
2023-03-01T14:06:19.685Z,6.18
2023-03-01T14:09:29.301Z,6.22
2023-03-01T14:12:53.506Z,6.26
2023-03-01T14:16:33.904Z,6.35
2023-03-01T14:19:38.596Z,6.38
2023-03-01T14:22:44.021Z,6.46
2023-03-01T14:25:56.573Z,6.48
2023-03-01T14:29:00.622Z,6.63
2023-03-01T14:32:10.708Z,6.63
2023-03-01T14:35:21.970Z,6.61
2023-03-01T14:38:46.984Z,6.41
2023-03-01T14:41:50.915Z,6.33
2023-03-01T14:44:57.072Z,6.10
2023-03-01T14:48:03.693Z,6.18
2023-03-01T14:51:08.183Z,6.17
2023-03-01T14:54:22.428Z,6.10
2023-03-01T14:57:30.290Z,6.10
2023-03-01T15:00:35.203Z,6.07
2023-03-01T15:03:46.919Z,6.10
2023-03-01T15:06:55.180Z,6.02
2023-03-01T15:10:00.318Z,6.05
2023-03-01T15:13:24.893Z,6.02
2023-03-01T15:16:34.549Z,6.03
2023-03-01T15:19:38.233Z,5.93
2023-03-01T15:22:49.304Z,5.89
2023-03-01T15:25:57.594Z,5.96
2023-03-01T15:29:02.696Z,5.93
2023-03-01T15:32:25.466Z,5.90
2023-03-01T15:35:48.884Z,5.88
2023-03-01T15:38:58.979Z,5.78
2023-03-01T15:42:02.945Z,5.69
2023-03-01T15:45:21.554Z,5.71
2023-03-01T15:48:27.277Z,5.82
2023-03-01T15:51:36.989Z,5.85
2023-03-01T15:54:41.731Z,5.81
2023-03-01T15:57:45.752Z,5.88
2023-03-01T16:01:01.556Z,5.80
2023-03-01T16:04:06.958Z,5.73
2023-03-01T16:07:11.042Z,5.69
2023-03-01T16:10:15.966Z,5.61
2023-03-01T16:13:20.227Z,5.62
2023-03-01T16:16:24.291Z,5.46
2023-03-01T16:19:28.430Z,5.41
2023-03-01T16:22:32.649Z,5.43
2023-03-01T16:25:36.663Z,5.30
2023-03-01T16:28:42.823Z,5.31
2023-03-01T16:31:46.548Z,5.30
2023-03-01T16:34:50.854Z,5.19
2023-03-01T16:37:55.074Z,5.17
2023-03-01T16:40:59.434Z,5.07
2023-03-01T16:44:03.283Z,5.12
2023-03-01T16:47:07.232Z,5.00
2023-03-01T16:50:11.680Z,4.92
2023-03-01T16:53:16.124Z,4.83
2023-03-01T16:56:20.865Z,4.73
2023-03-01T16:59:26.398Z,4.67
2023-03-01T17:02:30.323Z,4.62
2023-03-01T17:05:34.273Z,4.69
2023-03-01T17:08:39.264Z,4.58
2023-03-01T17:11:44.452Z,4.50
2023-03-01T17:14:50.768Z,4.39
2023-03-01T17:17:54.974Z,4.32
2023-03-01T17:20:59.749Z,4.40
2023-03-01T17:24:04.122Z,4.40
2023-03-01T17:27:08.901Z,4.43
2023-03-01T17:30:15.090Z,4.31
2023-03-01T17:33:20.190Z,4.17
2023-03-01T17:36:24.395Z,4.10
2023-03-01T17:39:35.872Z,4.06
2023-03-01T17:42:39.842Z,3.99
2023-03-01T17:45:48.433Z,3.84
2023-03-01T17:48:52.578Z,3.88
2023-03-01T17:51:57.033Z,3.83
2023-03-01T17:55:00.893Z,3.79
2023-03-01T17:58:06.630Z,3.87
2023-03-01T18:01:16.820Z,3.87
2023-03-01T18:04:21.072Z,3.88
2023-03-01T18:07:28.857Z,3.80
2023-03-01T18:10:36.310Z,3.74
2023-03-01T18:13:40.777Z,3.64
2023-03-01T18:16:44.554Z,3.61
2023-03-01T18:19:48.460Z,3.64
2023-03-01T18:22:52.748Z,3.79
2023-03-01T18:26:05.122Z,3.64
2023-03-01T18:29:10.508Z,3.53
2023-03-01T18:32:15.177Z,3.47
2023-03-01T18:35:19.251Z,3.46
2023-03-01T18:38:23.294Z,3.41
2023-03-01T18:41:31.779Z,3.32
2023-03-01T18:44:36.339Z,3.30
2023-03-01T18:47:41.470Z,3.24
2023-03-01T18:50:45.430Z,3.20
2023-03-01T18:53:50.048Z,3.13
2023-03-01T18:56:54.140Z,3.13
2023-03-01T18:59:58.268Z,3.08
2023-03-01T19:03:02.253Z,3.05
2023-03-01T19:06:06.551Z,3.07
2023-03-01T19:09:11.434Z,3.00
2023-03-01T19:12:15.701Z,3.03
2023-03-01T19:15:19.584Z,3.04
2023-03-01T19:18:23.835Z,3.08
2023-03-01T19:21:30.944Z,2.99
2023-03-01T19:24:35.521Z,3.07
2023-03-01T19:27:39.768Z,3.04
2023-03-01T19:30:44.156Z,3.05
2023-03-01T19:33:48.268Z,3.10
2023-03-01T19:36:52.096Z,3.05
2023-03-01T19:39:56.449Z,3.00
2023-03-01T19:43:00.552Z,2.99
2023-03-01T19:46:04.882Z,2.90
2023-03-01T19:49:09.506Z,2.84
2023-03-01T19:52:13.358Z,2.83
2023-03-01T19:55:17.651Z,2.89
2023-03-01T19:58:21.805Z,2.86
2023-03-01T20:01:30.449Z,2.79
2023-03-01T20:04:34.901Z,2.79
2023-03-01T20:07:38.775Z,2.79
2023-03-01T20:10:43.329Z,2.75
2023-03-01T20:13:47.635Z,2.74
2023-03-01T20:16:52.500Z,2.85
2023-03-01T20:19:56.620Z,2.68
2023-03-01T20:23:00.452Z,2.53
2023-03-01T20:26:07.098Z,2.60
2023-03-01T20:29:12.551Z,2.72
2023-03-01T20:32:16.933Z,2.68
2023-03-01T20:35:21.955Z,2.55
2023-03-01T20:38:27.055Z,2.52
2023-03-01T20:41:31.515Z,2.50
2023-03-01T20:44:35.503Z,2.54
2023-03-01T20:47:39.877Z,2.51
2023-03-01T20:50:44.165Z,2.40
2023-03-01T20:53:49.280Z,2.26
2023-03-01T20:56:53.326Z,2.26
2023-03-01T20:59:57.584Z,2.30
2023-03-01T21:03:03.257Z,2.37
2023-03-01T21:06:07.569Z,2.35
2023-03-01T21:09:12.334Z,2.26
2023-03-01T21:12:17.010Z,2.30
2023-03-01T21:15:28.987Z,2.33
2023-03-01T21:18:36.069Z,2.24
2023-03-01T21:21:40.449Z,2.21
2023-03-01T21:24:44.873Z,2.17
2023-03-01T21:27:48.611Z,2.16
2023-03-01T21:30:53.017Z,2.10
2023-03-01T21:33:59.003Z,2.11
2023-03-01T21:37:03.619Z,2.12
2023-03-01T21:40:08.805Z,2.06
2023-03-01T21:43:12.785Z,1.97
2023-03-01T21:46:22.352Z,1.92
2023-03-01T21:49:26.415Z,1.92
2023-03-01T21:52:30.231Z,1.90
2023-03-01T21:55:34.253Z,1.90
2023-03-01T21:58:40.782Z,1.86
2023-03-01T22:01:45.298Z,1.89
2023-03-01T22:04:57.229Z,1.91
2023-03-01T22:08:02.373Z,1.89
2023-03-01T22:11:06.198Z,1.85
2023-03-01T22:14:13.583Z,1.83
2023-03-01T22:17:17.707Z,1.81
2023-03-01T22:20:21.917Z,1.72
2023-03-01T22:23:26.371Z,1.70
2023-03-01T22:26:35.498Z,1.67
2023-03-01T22:29:39.318Z,1.69
2023-03-01T22:32:43.513Z,1.59
2023-03-01T22:35:47.770Z,1.53
2023-03-01T22:38:58.571Z,1.54
2023-03-01T22:42:02.373Z,1.57
2023-03-01T22:45:06.901Z,1.64
2023-03-01T22:48:10.707Z,1.59
2023-03-01T22:51:20.586Z,1.56
2023-03-01T22:54:24.524Z,1.53
2023-03-01T22:57:28.573Z,1.35
2023-03-01T23:00:33.104Z,1.24
2023-03-01T23:03:37.144Z,1.15
2023-03-01T23:06:50.623Z,1.03
2023-03-01T23:09:54.738Z,1.03
2023-03-01T23:12:58.587Z,1.02
2023-03-01T23:16:03.002Z,0.95
2023-03-01T23:19:07.028Z,0.88
2023-03-01T23:22:11.190Z,0.76
2023-03-01T23:25:15.986Z,0.74
2023-03-01T23:28:20.008Z,0.76
2023-03-01T23:31:29.869Z,0.78
2023-03-01T23:34:34.160Z,0.86
2023-03-01T23:37:39.034Z,0.91
2023-03-01T23:40:43.483Z,0.87
2023-03-01T23:43:50.143Z,0.86
2023-03-01T23:46:54.277Z,0.79
2023-03-01T23:49:58.197Z,0.80
2023-03-01T23:53:03.070Z,0.75
2023-03-01T23:56:10.281Z,0.70
2023-03-01T23:59:17.812Z,0.62
